KSYI/SYI METAR and TAF weather

Enter ICAO airport designator
Station Type Date Time Source
KSYI METAR 2020/04/06 17:35 UTC NOAA

KSYI 061735Z AUTO VRB04KT 10SM CLR 25/13 A3009 RMK A01


Station Type Date Time Source
KSYI Decoded METAR 2020/04/06 17:35 UTC NOAA

Station name not available
Apr 06, 2020 - 01:35 PM EDT / 2020.04.06 1735 UTC
Wind: Variable at 5 MPH (4 KT):0
Visibility: 10 mile(s):0
Sky conditions: clear
Temperature: 77 F (25 C)
Dew Point: 55 F (13 C)
Relative Humidity: 47%
Pressure (altimeter): 30.09 in. Hg (1018 hPa)
ob: KSYI 061735Z AUTO VRB04KT 10SM CLR 25/13 A3009 RMK A01
cycle: 17

Station Type Date Time Source
KSYI TAF UTC NOAA

Error!

Example: see airport list